Time;durP1;ratioP1;P1;durP2;ratioP2;P2;SDS_P1;SDS_P2;PMS_P1;PMS_P2;Temp;Humidity;BMP_temperature;BMP_pressure;BME280_temperature;BME280_humidity;BME280_pressure;Samples;Min_cycle;Max_cycle;Signal;HPM_P1;HPM_P2
2021/01/15 00:01:06;;;;;;;58.67;5.90;;;0.10;1.00;;;;;;5033455;28;20242;-72
2021/01/15 00:03:33;;;;;;;60.35;5.75;;;0.10;1.00;;;;;;5033346;28;20210;-72
2021/01/15 00:06:05;;;;;;;59.70;5.35;;;0.10;1.00;;;;;;5033201;28;20213;-72
2021/01/15 00:08:32;;;;;;;61.20;5.95;;;0.10;1.00;;;;;;5033028;28;20217;-72
2021/01/15 00:10:59;;;;;;;59.90;6.10;;;0.10;1.00;;;;;;5033579;28;20206;-72
2021/01/15 00:13:25;;;;;;;59.40;5.35;;;0.10;1.00;;;;;;5033094;28;20212;-72
2021/01/15 00:15:52;;;;;;;58.80;5.50;;;0.10;1.00;;;;;;5033214;28;20206;-72
2021/01/15 00:18:18;;;;;;;57.85;4.85;;;0.10;1.00;;;;;;5032757;28;20293;-72
2021/01/15 00:20:44;;;;;;;62.25;6.57;;;0.10;1.00;;;;;;5033268;28;20220;-72
2021/01/15 00:23:11;;;;;;;58.72;5.10;;;0.10;1.00;;;;;;5034424;28;20246;-72
2021/01/15 00:25:38;;;;;;;58.30;4.97;;;0.00;1.00;;;;;;5034887;28;20216;-72
2021/01/15 00:28:04;;;;;;;58.95;5.75;;;0.00;1.00;;;;;;5033182;28;20233;-72
2021/01/15 00:30:30;;;;;;;57.45;4.68;;;0.00;1.00;;;;;;5032809;28;20580;-72
2021/01/15 00:32:57;;;;;;;58.47;6.10;;;-0.10;1.00;;;;;;5032737;28;20317;-72
2021/01/15 00:35:23;;;;;;;59.83;5.90;;;-0.10;1.00;;;;;;5032799;28;20660;-72
2021/01/15 00:37:49;;;;;;;61.10;5.95;;;-0.10;1.00;;;;;;5032536;28;20202;-72
2021/01/15 00:40:17;;;;;;;59.95;5.72;;;-0.10;1.00;;;;;;5032843;28;20206;-72
2021/01/15 00:42:43;;;;;;;59.33;5.10;;;-0.10;1.00;;;;;;5032579;28;20230;-72
2021/01/15 00:45:16;;;;;;;58.38;5.75;;;-0.10;1.00;;;;;;5032682;28;20206;-72
2021/01/15 00:47:43;;;;;;;59.47;5.00;;;-0.20;1.00;;;;;;5032156;28;20268;-72
2021/01/15 00:50:10;;;;;;;58.88;5.50;;;-0.20;1.00;;;;;;5032488;28;20214;-72
2021/01/15 00:52:37;;;;;;;59.22;5.75;;;-0.20;1.00;;;;;;5032478;28;20226;-72
2021/01/15 00:55:04;;;;;;;59.55;4.72;;;-0.20;1.00;;;;;;5032388;28;20266;-72
2021/01/15 00:57:35;;;;;;;58.10;5.18;;;-0.20;1.00;;;;;;5032005;28;20206;-72
2021/01/15 01:00:02;;;;;;;58.45;4.80;;;-0.20;1.00;;;;;;5031689;28;20579;-72
2021/01/15 01:02:28;;;;;;;57.72;4.85;;;-0.20;1.00;;;;;;5032053;28;20236;-72
2021/01/15 01:04:55;;;;;;;57.70;5.10;;;-0.30;1.00;;;;;;5032288;28;20284;-72
2021/01/15 01:07:21;;;;;;;58.88;4.65;;;-0.30;1.00;;;;;;5031944;28;20261;-72
2021/01/15 01:09:47;;;;;;;58.78;4.90;;;-0.30;1.00;;;;;;5032133;28;20210;-72
2021/01/15 01:12:14;;;;;;;57.88;5.05;;;-0.30;1.00;;;;;;5032002;28;20316;-72
2021/01/15 01:14:41;;;;;;;58.47;5.55;;;-0.30;1.00;;;;;;5031941;28;20258;-72
2021/01/15 01:17:07;;;;;;;58.13;5.07;;;-0.30;1.00;;;;;;5031981;28;20210;-72
2021/01/15 01:19:33;;;;;;;61.70;5.15;;;-0.30;1.00;;;;;;5032091;28;20564;-72
2021/01/15 01:22:00;;;;;;;60.65;4.88;;;-0.30;1.00;;;;;;5032030;28;20233;-72
2021/01/15 01:24:26;;;;;;;58.92;5.40;;;-0.30;1.00;;;;;;5031746;28;20203;-72
2021/01/15 01:26:52;;;;;;;58.58;5.18;;;-0.40;1.00;;;;;;5031608;28;20239;-72
2021/01/15 01:29:19;;;;;;;58.85;4.78;;;-0.40;1.00;;;;;;5031638;28;20237;-72
2021/01/15 01:31:46;;;;;;;58.22;5.30;;;-0.40;1.00;;;;;;5031997;28;20256;-72
2021/01/15 01:34:13;;;;;;;58.03;5.28;;;-0.40;1.00;;;;;;5031655;28;20259;-72
2021/01/15 01:36:39;;;;;;;58.25;4.93;;;-0.40;1.00;;;;;;5031655;28;20294;-72
2021/01/15 01:39:05;;;;;;;57.50;5.38;;;-0.50;1.00;;;;;;5031677;28;20293;-72
2021/01/15 01:41:32;;;;;;;57.00;4.82;;;-0.50;1.00;;;;;;5031595;28;20266;-72
2021/01/15 01:43:58;;;;;;;57.83;4.57;;;-0.50;1.00;;;;;;5031342;28;20211;-72
2021/01/15 01:46:25;;;;;;;57.85;5.07;;;-0.50;1.00;;;;;;5031469;28;20212;-72
2021/01/15 01:48:52;;;;;;;58.00;4.80;;;-0.60;1.00;;;;;;5031682;28;20241;-72
2021/01/15 01:51:19;;;;;;;57.50;5.40;;;-0.60;1.00;;;;;;5031289;28;20284;-72
2021/01/15 01:53:46;;;;;;;58.85;5.25;;;-0.60;1.00;;;;;;5031454;28;20682;-72
2021/01/15 01:56:13;;;;;;;57.70;5.20;;;-0.70;1.00;;;;;;5031104;28;20210;-72
2021/01/15 01:58:39;;;;;;;59.35;5.50;;;-0.70;1.00;;;;;;5031278;28;20249;-72
2021/01/15 02:01:06;;;;;;;57.40;5.10;;;-0.70;1.00;;;;;;5031319;28;20234;-72
2021/01/15 02:03:33;;;;;;;58.63;5.72;;;-0.70;1.00;;;;;;5031726;28;20572;-72
2021/01/15 02:06:00;;;;;;;59.65;5.47;;;-0.70;1.00;;;;;;5031118;28;20260;-72
2021/01/15 02:08:27;;;;;;;62.70;5.30;;;-0.80;1.00;;;;;;5031637;28;20209;-72
2021/01/15 02:11:02;;;;;;;60.85;6.18;;;-0.80;1.00;;;;;;5033571;28;20209;-72
2021/01/15 02:13:35;;;;;;;59.20;6.50;;;-0.80;1.00;;;;;;5035745;28;20205;-72
2021/01/15 02:16:03;;;;;;;60.42;5.47;;;-0.80;1.00;;;;;;5035424;28;20206;-72
2021/01/15 02:18:33;;;;;;;59.13;5.65;;;-0.80;1.00;;;;;;5035275;28;20237;-72
2021/01/15 02:21:33;;;;;;;58.65;5.15;;;-0.80;1.00;;;;;;5036638;28;20234;-72
2021/01/15 02:24:07;;;;;;;62.35;5.30;;;-0.90;1.00;;;;;;5037140;28;20202;-71
2021/01/15 02:27:06;;;;;;;61.83;5.70;;;-0.90;1.00;;;;;;5035016;28;20206;-71
2021/01/15 02:29:34;;;;;;;58.65;5.40;;;-0.90;1.00;;;;;;5035238;28;20221;-71
2021/01/15 02:32:36;;;;;;;60.00;5.95;;;-1.00;1.00;;;;;;5034900;28;20233;-72
2021/01/15 02:35:33;;;;;;;59.10;5.97;;;-1.00;1.00;;;;;;5032603;28;20226;-72
2021/01/15 02:38:07;;;;;;;57.97;5.10;;;-1.00;1.00;;;;;;5035041;28;20210;-72
2021/01/15 02:40:39;;;;;;;58.97;5.22;;;-1.00;1.00;;;;;;5035150;28;20455;-72
2021/01/15 02:43:07;;;;;;;59.40;7.13;;;-1.00;1.00;;;;;;5034965;28;20697;-72
2021/01/15 02:45:34;;;;;;;58.33;5.30;;;-1.10;1.00;;;;;;5034788;28;20206;-72
2021/01/15 02:48:03;;;;;;;58.10;5.60;;;-1.10;1.00;;;;;;5034933;28;20468;-72
2021/01/15 02:50:29;;;;;;;58.28;5.63;;;-1.10;1.00;;;;;;5034953;28;20248;-72
2021/01/15 02:52:57;;;;;;;59.22;6.00;;;-1.10;1.00;;;;;;5034835;28;20313;-72
2021/01/15 02:55:23;;;;;;;58.78;5.45;;;-1.10;1.00;;;;;;5034516;28;20240;-72
2021/01/15 02:57:51;;;;;;;58.42;5.35;;;-1.10;1.00;;;;;;5034660;28;20274;-71
2021/01/15 03:00:19;;;;;;;59.10;6.10;;;-1.20;1.00;;;;;;5034698;28;20232;-72
2021/01/15 03:03:02;;;;;;;58.67;6.03;;;-1.20;1.00;;;;;;5034440;28;20244;-72
2021/01/15 03:05:32;;;;;;;59.00;6.20;;;-1.20;1.00;;;;;;5034818;28;20210;-73
2021/01/15 03:08:03;;;;;;;59.95;5.45;;;-1.30;1.00;;;;;;5034369;28;20210;-73
2021/01/15 03:10:31;;;;;;;59.42;5.55;;;-1.30;1.00;;;;;;5034225;28;20218;-73
2021/01/15 03:12:59;;;;;;;59.67;6.90;;;-1.30;1.00;;;;;;5034652;28;20226;-73
2021/01/15 03:15:27;;;;;;;59.55;5.97;;;-1.40;1.00;;;;;;5034326;28;20230;-73
2021/01/15 03:17:54;;;;;;;60.20;7.07;;;-1.40;1.00;;;;;;5034224;28;20218;-73
2021/01/15 03:20:23;;;;;;;60.50;6.47;;;-1.40;1.00;;;;;;5034641;28;20252;-73
2021/01/15 03:22:50;;;;;;;62.30;7.43;;;-1.50;1.00;;;;;;5033478;28;20371;-73
2021/01/15 03:25:17;;;;;;;60.13;6.65;;;-1.50;1.00;;;;;;5034096;28;20216;-73
2021/01/15 03:27:46;;;;;;;59.05;6.72;;;-1.50;1.00;;;;;;5033904;28;20206;-73
2021/01/15 03:30:16;;;;;;;59.83;6.82;;;-1.50;1.00;;;;;;5034231;28;20221;-73
2021/01/15 03:32:42;;;;;;;61.67;7.10;;;-1.50;1.00;;;;;;5034146;28;20233;-73
2021/01/15 03:35:09;;;;;;;58.53;5.88;;;-1.60;1.00;;;;;;5034097;28;20222;-73
2021/01/15 03:37:36;;;;;;;60.10;5.88;;;-1.60;1.00;;;;;;5033627;28;20214;-73
2021/01/15 03:40:05;;;;;;;59.03;6.00;;;-1.60;1.00;;;;;;5034248;28;20206;-73
2021/01/15 03:42:31;;;;;;;59.13;5.75;;;-1.60;1.00;;;;;;5033927;28;20226;-73
2021/01/15 03:44:57;;;;;;;59.10;6.00;;;-1.70;1.00;;;;;;5034040;28;20221;-73
2021/01/15 03:47:24;;;;;;;59.72;6.55;;;-1.70;1.00;;;;;;5033510;28;20210;-73
2021/01/15 03:49:50;;;;;;;59.25;5.70;;;-1.70;1.00;;;;;;5033650;28;20213;-73
2021/01/15 03:52:16;;;;;;;58.95;5.88;;;-1.80;1.00;;;;;;5033865;28;20571;-73
2021/01/15 03:54:43;;;;;;;63.00;7.13;;;-1.80;1.00;;;;;;5033560;28;20230;-73
2021/01/15 03:57:11;;;;;;;59.95;6.15;;;-1.80;1.00;;;;;;5033518;28;20241;-73
2021/01/15 03:59:38;;;;;;;60.50;7.30;;;-1.80;1.00;;;;;;5033608;28;20242;-73
2021/01/15 04:02:04;;;;;;;60.08;5.93;;;-1.90;1.00;;;;;;5070346;22;20230;-69
2021/01/15 04:04:31;;;;;;;59.72;7.60;;;-1.90;1.00;;;;;;5033204;28;20583;-69
2021/01/15 04:06:59;;;;;;;60.30;6.90;;;-1.90;1.00;;;;;;5033504;28;20321;-69
2021/01/15 04:09:25;;;;;;;60.20;6.38;;;-1.90;1.00;;;;;;5033180;28;20212;-69
2021/01/15 04:11:53;;;;;;;61.17;6.45;;;-2.00;1.00;;;;;;5033474;28;20452;-69
2021/01/15 04:14:19;;;;;;;61.33;7.00;;;-2.00;1.00;;;;;;5033221;28;20642;-69
2021/01/15 04:16:50;;;;;;;60.47;6.13;;;-2.00;1.00;;;;;;5033004;28;20214;-69
2021/01/15 04:19:17;;;;;;;60.20;6.20;;;-2.00;1.00;;;;;;5033677;28;20210;-70
2021/01/15 04:21:43;;;;;;;61.17;6.30;;;-2.10;1.00;;;;;;5033460;28;20667;-70
2021/01/15 04:24:10;;;;;;;60.75;7.00;;;-2.10;1.00;;;;;;5033310;28;20272;-69
2021/01/15 04:26:36;;;;;;;60.10;6.60;;;-2.10;1.00;;;;;;5032880;28;20257;-69
2021/01/15 04:29:03;;;;;;;63.63;6.22;;;-2.20;1.00;;;;;;5033122;28;20272;-69
2021/01/15 04:31:29;;;;;;;61.85;7.38;;;-2.20;1.00;;;;;;5032795;28;20234;-70
2021/01/15 04:33:56;;;;;;;61.83;7.70;;;-2.20;1.00;;;;;;5032144;28;20232;-69
2021/01/15 04:36:22;;;;;;;60.50;7.35;;;-2.30;1.00;;;;;;5032758;28;20562;-69
2021/01/15 04:38:48;;;;;;;62.03;7.10;;;-2.30;1.00;;;;;;5032596;28;20206;-70
2021/01/15 04:41:21;;;;;;;60.58;7.30;;;-2.30;1.00;;;;;;5032854;28;20241;-69
2021/01/15 04:43:53;;;;;;;60.50;7.25;;;-2.30;1.00;;;;;;5032833;28;20202;-70
2021/01/15 04:46:21;;;;;;;61.08;7.35;;;-2.40;1.00;;;;;;5032375;28;20268;-69
2021/01/15 04:48:49;;;;;;;60.85;7.50;;;-2.40;1.00;;;;;;5032534;28;20214;-70
2021/01/15 04:51:19;;;;;;;62.35;7.82;;;-2.40;1.00;;;;;;5032937;28;20234;-70
2021/01/15 04:53:54;;;;;;;61.95;7.78;;;-2.50;1.00;;;;;;5032775;28;20252;-69
2021/01/15 04:56:29;;;;;;;61.50;6.65;;;-2.50;1.00;;;;;;5032697;28;20235;-70
2021/01/15 04:59:01;;;;;;;62.20;8.10;;;-2.50;1.00;;;;;;5032301;28;20206;-69
2021/01/15 05:01:38;;;;;;;63.80;7.18;;;-2.60;1.00;;;;;;5032236;28;20226;-69
2021/01/15 05:04:07;;;;;;;61.60;8.07;;;-2.70;1.00;;;;;;5032443;28;20206;-69
2021/01/15 05:06:45;;;;;;;61.85;8.20;;;-2.70;1.00;;;;;;5032035;28;20214;-69
2021/01/15 05:09:13;;;;;;;61.55;7.53;;;-2.70;1.00;;;;;;5032068;28;20206;-69
2021/01/15 05:11:39;;;;;;;60.67;7.72;;;-2.80;1.00;;;;;;5032378;28;20223;-69
2021/01/15 05:14:09;;;;;;;62.55;8.30;;;-2.80;1.00;;;;;;5032163;28;20296;-69
2021/01/15 05:16:39;;;;;;;62.55;8.15;;;-2.90;1.00;;;;;;5032251;28;20221;-69
2021/01/15 05:19:05;;;;;;;60.78;6.55;;;-2.90;1.00;;;;;;5032246;28;20297;-69
2021/01/15 05:21:33;;;;;;;61.20;7.47;;;-2.90;1.00;;;;;;5031789;28;20268;-69
2021/01/15 05:24:00;;;;;;;61.50;7.57;;;-2.90;1.00;;;;;;5031992;28;20266;-70
2021/01/15 05:26:26;;;;;;;63.88;8.73;;;-2.90;1.00;;;;;;5031704;28;20761;-69
2021/01/15 05:28:53;;;;;;;62.13;7.07;;;-2.90;1.00;;;;;;5032245;28;20585;-70
2021/01/15 05:31:19;;;;;;;61.00;8.15;;;-2.90;1.00;;;;;;5031786;28;20210;-69
2021/01/15 05:34:07;;;;;;;63.13;8.00;;;-2.90;1.00;;;;;;5031828;28;20224;-69
2021/01/15 05:36:35;;;;;;;62.78;7.45;;;-2.90;1.00;;;;;;5031613;28;20203;-69
2021/01/15 05:39:13;;;;;;;62.00;8.60;;;-2.90;1.00;;;;;;5032046;28;20206;-69
2021/01/15 05:41:40;;;;;;;64.15;8.95;;;-2.90;1.00;;;;;;5031591;28;20222;-70
2021/01/15 05:44:07;;;;;;;62.30;7.53;;;-2.90;1.00;;;;;;5031751;28;20206;-69
2021/01/15 05:46:34;;;;;;;62.08;8.93;;;-3.00;1.00;;;;;;5030975;28;20210;-70
2021/01/15 05:49:11;;;;;;;62.85;8.38;;;-3.00;1.00;;;;;;5031938;28;20210;-69
2021/01/15 05:51:38;;;;;;;64.57;8.25;;;-3.00;1.00;;;;;;5031609;28;20230;-69
2021/01/15 05:54:06;;;;;;;62.28;7.80;;;-3.10;1.00;;;;;;5031586;28;20625;-69
2021/01/15 05:56:41;;;;;;;64.18;8.50;;;-3.10;1.00;;;;;;5031322;28;20404;-69
2021/01/15 05:59:09;;;;;;;65.45;9.40;;;-3.10;1.00;;;;;;5031273;28;20240;-69
2021/01/15 06:01:53;;;;;;;64.47;9.40;;;-3.10;1.00;;;;;;5031604;28;20226;-69
2021/01/15 06:04:34;;;;;;;63.05;8.32;;;-3.10;1.00;;;;;;5031251;28;20665;-69
2021/01/15 06:07:16;;;;;;;62.10;8.63;;;-3.10;1.00;;;;;;5031278;28;20201;-69
2021/01/15 06:09:44;;;;;;;65.43;9.23;;;-3.10;1.00;;;;;;5031309;28;20218;-70
2021/01/15 06:12:12;;;;;;;64.40;8.73;;;-3.10;1.00;;;;;;5031669;28;20222;-70
2021/01/15 06:14:49;;;;;;;65.63;8.70;;;-3.10;1.00;;;;;;5031087;28;20257;-70
2021/01/15 06:17:17;;;;;;;66.00;9.25;;;-3.10;1.00;;;;;;5031262;28;20213;-69
2021/01/15 06:19:46;;;;;;;63.05;9.15;;;-3.10;1.00;;;;;;5031303;28;20236;-69
2021/01/15 06:22:27;;;;;;;61.88;8.20;;;-3.10;1.00;;;;;;5031114;28;20789;-70
2021/01/15 06:25:09;;;;;;;63.13;8.20;;;-3.10;1.00;;;;;;5031497;28;20228;-69
2021/01/15 06:27:37;;;;;;;63.35;9.18;;;-3.10;1.00;;;;;;5031058;28;20209;-69
2021/01/15 06:30:06;;;;;;;64.80;9.15;;;-3.10;1.00;;;;;;5031128;28;20217;-70
2021/01/15 06:32:33;;;;;;;65.55;8.88;;;-3.10;1.00;;;;;;5031092;28;20673;-69
2021/01/15 06:35:01;;;;;;;62.90;9.57;;;-3.10;1.00;;;;;;5031152;28;20236;-70
2021/01/15 06:37:30;;;;;;;64.15;9.15;;;-3.20;1.00;;;;;;5030820;28;20264;-70
2021/01/15 06:40:10;;;;;;;63.00;8.50;;;-3.20;1.00;;;;;;5031309;28;20241;-69
2021/01/15 06:42:48;;;;;;;64.90;9.80;;;-3.20;1.00;;;;;;5030887;28;20222;-70
2021/01/15 06:45:16;;;;;;;66.68;10.10;;;-3.20;1.00;;;;;;5031129;28;20236;-70
2021/01/15 06:47:44;;;;;;;64.93;8.38;;;-3.20;1.00;;;;;;5030913;28;20225;-69
2021/01/15 06:50:16;;;;;;;65.15;8.30;;;-3.20;1.00;;;;;;5031125;28;20206;-69
2021/01/15 06:52:47;;;;;;;63.35;9.52;;;-3.20;1.00;;;;;;5031137;28;20241;-70
2021/01/15 06:55:16;;;;;;;64.50;9.57;;;-3.20;1.00;;;;;;5030941;28;20227;-70
2021/01/15 06:57:46;;;;;;;65.75;10.23;;;-3.20;1.00;;;;;;5032875;28;20280;-69
2021/01/15 07:00:14;;;;;;;64.88;10.10;;;-3.20;1.00;;;;;;5034933;28;20207;-70
2021/01/15 07:03:24;;;;;;;65.68;10.85;;;-3.20;1.00;;;;;;5034430;28;20245;-69
2021/01/15 07:05:52;;;;;;;65.55;8.95;;;-3.20;1.00;;;;;;5023870;28;20626;-69
2021/01/15 07:08:18;;;;;;;67.45;10.20;;;-3.20;1.00;;;;;;5034369;28;20625;-69
2021/01/15 07:10:46;;;;;;;67.53;10.70;;;-3.20;1.00;;;;;;5034676;28;20213;-70
2021/01/15 07:13:22;;;;;;;65.63;10.13;;;-3.20;1.00;;;;;;5034448;28;20233;-70
2021/01/15 07:15:53;;;;;;;65.03;10.65;;;-3.20;1.00;;;;;;5034303;28;20241;-70
2021/01/15 07:18:32;;;;;;;67.65;10.27;;;-3.20;1.00;;;;;;5033814;28;20264;-71
2021/01/15 07:21:07;;;;;;;68.90;10.52;;;-3.20;1.00;;;;;;5034600;28;20209;-70
2021/01/15 07:23:53;;;;;;;66.68;9.95;;;-3.20;1.00;;;;;;5034450;28;20248;-70
2021/01/15 07:26:20;;;;;;;66.57;11.30;;;-3.20;1.00;;;;;;5033984;28;20206;-71
2021/01/15 07:28:47;;;;;;;65.97;10.23;;;-3.20;1.00;;;;;;5033570;28;20214;-70
2021/01/15 07:31:23;;;;;;;68.40;10.75;;;-3.10;1.00;;;;;;5034061;28;20305;-70
2021/01/15 07:39:13;;;;;;;68.95;12.63;;;-3.00;1.00;;;;;;5150065;22;20739;-68
2021/01/15 07:41:45;;;;;;;72.65;11.50;;;-3.00;1.00;;;;;;5052585;28;20248;-69
2021/01/15 07:44:35;;;;;;;67.85;11.50;;;-3.00;1.00;;;;;;5053647;28;20307;-70
2021/01/15 07:47:02;;;;;;;71.32;11.55;;;-2.90;1.00;;;;;;5043216;28;20647;-70
2021/01/15 07:49:43;;;;;;;68.55;11.32;;;-2.90;1.00;;;;;;5053522;28;20224;-69
2021/01/15 07:52:11;;;;;;;65.45;10.43;;;-2.90;1.00;;;;;;5061826;22;20784;-76
2021/01/15 07:55:02;;;;;;;66.97;10.85;;;-2.80;1.00;;;;;;5033322;28;20723;-76
2021/01/15 07:57:30;;;;;;;68.57;11.73;;;-2.80;1.00;;;;;;5033807;28;20210;-75
2021/01/15 07:59:57;;;;;;;69.32;12.18;;;-2.80;1.00;;;;;;5033673;28;20242;-75
2021/01/15 08:02:24;;;;;;;70.03;12.48;;;-2.70;1.00;;;;;;5033514;28;20244;-76
2021/01/15 08:04:50;;;;;;;68.57;11.95;;;-2.70;1.00;;;;;;5033193;28;20248;-75
2021/01/15 08:07:26;;;;;;;66.20;10.30;;;-2.60;1.00;;;;;;5033994;28;20297;-76
2021/01/15 08:09:52;;;;;;;69.70;12.07;;;-2.50;1.00;;;;;;5037195;28;20211;-76
2021/01/15 08:12:19;;;;;;;69.03;12.00;;;-2.50;1.00;;;;;;5034319;28;20505;-76
2021/01/15 08:14:45;;;;;;;68.80;12.75;;;-2.40;1.00;;;;;;5034422;28;20223;-76
2021/01/15 08:17:14;;;;;;;69.88;12.90;;;-2.40;1.00;;;;;;5035524;28;20297;-77
2021/01/15 08:19:41;;;;;;;65.07;10.68;;;-2.20;1.00;;;;;;5033715;28;20455;-77
2021/01/15 08:22:13;;;;;;;69.72;12.13;;;-2.10;1.00;;;;;;5033118;28;20309;-76
2021/01/15 08:24:46;;;;;;;71.95;13.20;;;-2.00;1.00;;;;;;5032731;28;20202;-76
2021/01/15 08:27:17;;;;;;;69.47;13.15;;;-1.90;1.00;;;;;;5033275;28;20210;-76
2021/01/15 08:29:44;;;;;;;68.00;12.82;;;-1.80;1.00;;;;;;5033030;28;20202;-75
2021/01/15 08:32:11;;;;;;;65.97;11.18;;;-1.70;1.00;;;;;;5033102;28;20322;-74
2021/01/15 08:34:38;;;;;;;71.38;13.07;;;-1.70;1.00;;;;;;5032264;28;20254;-75
2021/01/15 08:37:06;;;;;;;70.05;12.93;;;-1.60;1.00;;;;;;5033331;28;20206;-76
2021/01/15 08:39:46;;;;;;;66.15;11.40;;;-1.60;1.00;;;;;;5033183;28;20623;-76
2021/01/15 08:42:13;;;;;;;69.38;13.25;;;-1.50;1.00;;;;;;5032954;28;20347;-76
2021/01/15 08:44:41;;;;;;;69.63;12.60;;;-1.50;1.00;;;;;;5032416;28;20208;-75
2021/01/15 08:47:11;;;;;;;68.55;11.60;;;-1.40;1.00;;;;;;5032619;28;20261;-76
2021/01/15 08:49:38;;;;;;;67.53;11.65;;;-1.40;1.00;;;;;;5032910;28;20214;-75
2021/01/15 08:52:05;;;;;;;72.63;12.23;;;-1.40;1.00;;;;;;5032390;28;20234;-76
2021/01/15 08:54:33;;;;;;;66.22;10.63;;;-1.30;1.00;;;;;;5032157;28;20226;-76
2021/01/15 08:57:02;;;;;;;70.75;13.52;;;-1.30;1.00;;;;;;5032577;28;20213;-76
2021/01/15 08:59:30;;;;;;;71.25;11.85;;;-1.20;1.00;;;;;;5032030;28;20688;-76
2021/01/15 09:01:58;;;;;;;68.00;10.75;;;-1.20;1.00;;;;;;5032356;28;20239;-76
2021/01/15 09:04:27;;;;;;;69.35;11.52;;;-1.20;1.00;;;;;;5032038;28;20237;-76
2021/01/15 09:06:55;;;;;;;67.85;11.75;;;-1.10;1.00;;;;;;5032394;28;20214;-76
2021/01/15 09:09:23;;;;;;;66.95;11.20;;;-1.10;1.00;;;;;;5032541;28;20233;-76
2021/01/15 09:11:51;;;;;;;65.97;11.98;;;-1.00;1.00;;;;;;5032352;28;20774;-76
2021/01/15 09:14:20;;;;;;;67.30;11.73;;;-1.00;1.00;;;;;;5031861;28;20207;-76
2021/01/15 09:16:48;;;;;;;66.35;11.18;;;-0.90;1.00;;;;;;5032508;28;20207;-77
2021/01/15 09:19:15;;;;;;;70.50;12.15;;;-0.90;1.00;;;;;;5031831;28;20232;-76
2021/01/15 09:21:47;;;;;;;68.53;10.68;;;-0.80;1.00;;;;;;5032249;28;20234;-76
2021/01/15 09:24:14;;;;;;;67.25;12.27;;;-0.70;1.00;;;;;;5032160;28;20210;-76
2021/01/15 09:26:40;;;;;;;67.63;10.13;;;-0.60;1.00;;;;;;5031088;28;20234;-76
2021/01/15 09:29:06;;;;;;;68.63;11.63;;;-0.60;1.00;;;;;;5031818;28;20237;-75
2021/01/15 09:31:33;;;;;;;68.93;13.43;;;-0.50;1.00;;;;;;5032251;28;20233;-76
2021/01/15 09:33:59;;;;;;;66.30;11.60;;;-0.40;1.00;;;;;;5032000;28;20213;-76
2021/01/15 09:36:27;;;;;;;68.38;12.65;;;-0.30;1.00;;;;;;5031793;28;20316;-76
2021/01/15 09:38:56;;;;;;;68.45;12.00;;;-0.10;1.00;;;;;;5032297;28;20208;-75
2021/01/15 09:41:23;;;;;;;67.95;12.25;;;0.10;1.00;;;;;;5031564;28;20325;-76
2021/01/15 09:43:53;;;;;;;67.85;12.20;;;0.30;1.00;;;;;;5031993;28;20595;-76
2021/01/15 09:46:24;;;;;;;67.50;11.35;;;0.60;1.00;;;;;;5031569;28;20206;-76
2021/01/15 09:48:51;;;;;;;69.05;12.10;;;0.80;1.00;;;;;;5031659;28;20206;-76
2021/01/15 09:51:23;;;;;;;69.80;13.50;;;1.10;1.00;;;;;;5031357;28;20234;-76
2021/01/15 09:53:50;;;;;;;67.40;12.45;;;1.30;1.00;;;;;;5031546;28;20325;-76
2021/01/15 09:56:25;;;;;;;68.43;12.10;;;1.50;1.00;;;;;;5031319;28;20331;-76
2021/01/15 09:58:52;;;;;;;66.88;12.43;;;1.80;1.00;;;;;;5031599;28;20208;-75
2021/01/15 10:01:18;;;;;;;69.43;13.48;;;2.00;1.00;;;;;;5031407;28;20226;-75
2021/01/15 10:03:45;;;;;;;71.30;12.52;;;2.30;1.00;;;;;;5031644;28;20210;-75
2021/01/15 10:06:14;;;;;;;68.85;12.80;;;2.50;1.00;;;;;;5030930;28;20241;-75
2021/01/15 10:08:41;;;;;;;67.22;11.77;;;2.80;1.00;;;;;;5031801;28;20621;-75
2021/01/15 10:11:07;;;;;;;70.25;12.60;;;3.00;1.00;;;;;;5031945;28;20222;-75
2021/01/15 10:13:34;;;;;;;68.95;11.13;;;3.40;1.00;;;;;;5031691;28;20206;-74
2021/01/15 10:16:04;;;;;;;70.65;11.70;;;3.90;1.00;;;;;;5032305;28;20704;-74
2021/01/15 10:18:30;;;;;;;65.57;11.45;;;4.70;1.00;;;;;;5032789;28;20207;-74
2021/01/15 10:20:57;;;;;;;66.43;11.73;;;5.70;1.00;;;;;;5031734;28;20258;-74
2021/01/15 10:23:23;;;;;;;66.77;11.10;;;6.90;1.00;;;;;;5031628;28;20343;-75
2021/01/15 10:25:50;;;;;;;64.40;10.03;;;8.00;1.00;;;;;;5031426;28;20451;-74
2021/01/15 10:28:16;;;;;;;66.23;10.60;;;9.10;1.00;;;;;;5031116;28;20984;-73
2021/01/15 10:30:46;;;;;;;62.90;9.50;;;10.10;1.00;;;;;;5031438;28;20545;-75
2021/01/15 10:33:13;;;;;;;64.80;10.47;;;10.80;1.00;;;;;;5034360;28;20453;-74
2021/01/15 10:35:39;;;;;;;65.07;10.43;;;11.50;1.00;;;;;;5035135;28;20545;-74
2021/01/15 10:38:06;;;;;;;64.13;9.43;;;12.10;1.00;;;;;;5035726;28;20546;-74
2021/01/15 10:40:32;;;;;;;63.13;9.53;;;12.70;1.00;;;;;;5035265;28;20450;-74
2021/01/15 10:42:58;;;;;;;62.80;9.70;;;13.40;1.00;;;;;;5032983;28;21015;-74
2021/01/15 10:45:25;;;;;;;62.97;9.97;;;14.00;1.00;;;;;;5033034;28;20551;-74
2021/01/15 10:47:52;;;;;;;65.33;10.57;;;14.60;1.00;;;;;;5034839;28;20453;-74
2021/01/15 10:50:18;;;;;;;63.20;10.30;;;14.90;1.00;;;;;;5034653;28;20452;-74
2021/01/15 10:52:52;;;;;;;63.60;10.27;;;15.40;1.00;;;;;;5034649;28;20465;-74
2021/01/15 10:55:18;;;;;;;63.27;9.90;;;15.80;1.00;;;;;;5034406;28;20490;-74
2021/01/15 10:57:45;;;;;;;63.90;10.00;;;16.30;1.00;;;;;;5035332;28;20500;-74
2021/01/15 11:00:13;;;;;;;63.80;10.40;;;16.70;1.00;;;;;;5035009;28;20462;-73
2021/01/15 11:02:39;;;;;;;65.17;11.07;;;17.00;1.00;;;;;;5034367;28;20471;-74
2021/01/15 11:05:08;;;;;;;64.00;10.70;;;17.30;1.00;;;;;;5034330;28;20858;-74
2021/01/15 11:07:34;;;;;;;64.50;10.50;;;17.50;1.00;;;;;;5034689;28;20484;-73
2021/01/15 11:10:01;;;;;;;63.97;9.93;;;17.80;1.00;;;;;;5034589;28;20509;-73
2021/01/15 11:12:27;;;;;;;64.40;10.10;;;17.60;1.00;;;;;;5034282;28;20870;-72
2021/01/15 11:14:54;;;;;;;63.50;9.83;;;17.80;1.00;;;;;;5033748;28;20494;-73
2021/01/15 11:17:20;;;;;;;61.90;9.87;;;18.10;1.00;;;;;;5034418;28;20849;-73
2021/01/15 11:19:46;;;;;;;63.33;9.77;;;18.20;1.00;;;;;;5035140;28;20487;-73
2021/01/15 11:22:14;;;;;;;63.30;10.47;;;18.30;1.00;;;;;;5034824;28;20507;-73
2021/01/15 11:24:40;;;;;;;62.37;9.90;;;18.40;1.00;;;;;;5035154;28;20981;-73
2021/01/15 11:27:06;;;;;;;65.23;10.90;;;18.70;1.00;;;;;;5036658;28;20832;-72
2021/01/15 11:29:33;;;;;;;62.80;10.70;;;19.10;1.00;;;;;;5035962;28;20491;-72
2021/01/15 11:31:59;;;;;;;63.97;9.77;;;19.50;1.00;;;;;;5034392;28;20571;-72
2021/01/15 11:34:26;;;;;;;63.77;10.67;;;19.90;1.00;;;;;;5033663;28;20449;-72
2021/01/15 11:36:52;;;;;;;63.07;10.63;;;20.20;1.00;;;;;;5033895;28;20477;-71
2021/01/15 11:39:19;;;;;;;63.73;11.07;;;20.30;1.00;;;;;;5034334;28;20506;-72
2021/01/15 11:41:51;;;;;;;64.77;11.10;;;20.50;1.00;;;;;;5033597;28;20837;-72
2021/01/15 11:44:18;;;;;;;62.90;10.40;;;20.60;1.00;;;;;;5032871;28;20449;-71
2021/01/15 11:46:45;;;;;;;62.73;9.23;;;20.70;1.00;;;;;;5033555;28;20445;-72
2021/01/15 11:49:13;;;;;;;61.13;9.70;;;20.50;1.00;;;;;;5033678;28;20815;-72
2021/01/15 11:51:39;;;;;;;65.07;11.10;;;20.60;1.00;;;;;;5033632;28;20482;-72
2021/01/15 11:54:12;;;;;;;64.80;11.00;;;20.80;1.00;;;;;;5033591;28;20529;-72
2021/01/15 11:56:40;;;;;;;63.43;10.67;;;21.10;1.00;;;;;;5033194;28;21070;-72
2021/01/15 11:59:06;;;;;;;62.17;9.83;;;21.20;1.00;;;;;;5033626;28;20454;-72
2021/01/15 12:01:33;;;;;;;65.27;10.30;;;21.30;1.00;;;;;;5026289;28;20979;-71
2021/01/15 12:03:59;;;;;;;63.10;9.77;;;21.50;1.00;;;;;;5013844;28;20457;-71
2021/01/15 12:06:25;;;;;;;62.30;9.93;;;21.50;1.00;;;;;;5013569;28;20543;-72
2021/01/15 12:08:52;;;;;;;62.40;10.40;;;21.80;1.00;;;;;;5013671;28;20449;-72
2021/01/15 12:11:19;;;;;;;62.40;9.90;;;21.70;1.00;;;;;;5013361;28;20472;-72
2021/01/15 12:13:47;;;;;;;62.27;9.30;;;21.50;1.00;;;;;;5013759;28;20447;-71
2021/01/15 12:16:14;;;;;;;61.77;9.37;;;21.80;1.00;;;;;;5013055;28;20492;-71
2021/01/15 12:18:40;;;;;;;60.50;8.60;;;22.20;1.00;;;;;;5013555;28;20489;-71
2021/01/15 12:21:06;;;;;;;61.60;9.33;;;22.60;1.00;;;;;;5015119;28;20477;-71
2021/01/15 12:23:33;;;;;;;62.60;9.60;;;23.00;1.00;;;;;;5014494;28;20535;-70
2021/01/15 12:26:01;;;;;;;63.47;9.50;;;23.20;1.00;;;;;;5013073;28;20503;-71
2021/01/15 12:28:27;;;;;;;61.07;9.20;;;23.30;1.00;;;;;;5013295;28;20957;-71
2021/01/15 12:30:54;;;;;;;63.40;9.50;;;23.20;1.00;;;;;;5013293;28;20488;-70
2021/01/15 12:33:22;;;;;;;61.60;10.00;;;23.40;1.00;;;;;;5013208;28;20455;-71
2021/01/15 12:35:50;;;;;;;60.90;9.70;;;23.60;1.00;;;;;;5012830;28;20485;-70
2021/01/15 12:38:17;;;;;;;61.10;9.23;;;23.80;1.00;;;;;;5012960;28;20450;-71
2021/01/15 12:40:45;;;;;;;61.97;8.70;;;24.10;1.00;;;;;;5013216;28;20496;-70
2021/01/15 12:43:12;;;;;;;62.80;9.23;;;24.00;1.00;;;;;;5013044;28;20477;-70
2021/01/15 12:45:40;;;;;;;66.87;9.73;;;24.00;1.00;;;;;;5012833;28;20446;-71
2021/01/15 12:48:08;;;;;;;61.77;10.17;;;23.90;1.00;;;;;;5012849;28;20450;-71
2021/01/15 12:50:35;;;;;;;60.07;7.70;;;23.30;1.00;;;;;;5012817;28;20488;-71
2021/01/15 12:53:01;;;;;;;60.40;8.53;;;23.50;1.00;;;;;;5012604;28;20458;-71
2021/01/15 12:55:28;;;;;;;61.57;8.30;;;23.80;1.00;;;;;;5011888;28;20489;-72
2021/01/15 12:57:56;;;;;;;61.70;8.37;;;23.80;1.00;;;;;;5012958;28;20450;-71
2021/01/15 13:00:24;;;;;;;60.77;7.90;;;23.60;1.00;;;;;;5012623;28;20941;-72